HESH/SSH METAR and TAF weather

Enter ICAO airport designator
Station Type Date Time Source
HESH METAR 2019/06/26 18:00 UTC NOAA

HESH 261800Z 00000KT CAVOK 35/24 Q1007 NOSIG


Station Type Date Time Source
HESH Decoded METAR 2019/06/26 18:00 UTC NOAA

Sharm El Sheikhintl, Egypt (HESH) 27-58N 034-23E
Jun 26, 2019 - 02:00 PM EDT / 2019.06.26 1800 UTC
Wind: Calm:0
Visibility: greater than 7 mile(s):0
Temperature: 95 F (35 C)
Heat index: 107.4 F (41.9 C):1
Dew Point: 75 F (24 C)
Relative Humidity: 53%
Pressure (altimeter): 29.74 in. Hg (1007 hPa)
ob: HESH 261800Z 00000KT CAVOK 35/24 Q1007 NOSIG
cycle: 18

Station Type Date Time Source
HESH TAF 2019/06/26 18:39 UTC NOAA

TAF TAF HESH 261700Z 2618/2724 16007KT CAVOK
BECMG 2619/2621 32008KT

Example: see airport list